createdAt,value
2019-02-15T00:00:26.987Z,6.73
2019-02-15T00:02:56.006Z,7.37
2019-02-15T00:05:24.342Z,7.70
2019-02-15T00:07:52.694Z,7.73
2019-02-15T00:10:21.137Z,7.40
2019-02-15T00:12:49.500Z,7.07
2019-02-15T00:15:17.913Z,7.50
2019-02-15T00:17:50.798Z,6.97
2019-02-15T00:20:23.977Z,7.43
2019-02-15T00:22:52.337Z,7.73
2019-02-15T00:25:20.669Z,6.90
2019-02-15T00:27:49.030Z,7.63
2019-02-15T00:30:17.374Z,6.67
2019-02-15T00:32:45.710Z,7.13
2019-02-15T00:35:14.066Z,7.33
2019-02-15T00:37:42.393Z,6.50
2019-02-15T00:40:10.757Z,6.97
2019-02-15T00:42:39.117Z,6.93
2019-02-15T00:45:08.949Z,6.73
2019-02-15T00:47:38.938Z,7.33
2019-02-15T00:50:09.272Z,7.00
2019-02-15T00:52:44.948Z,7.67
2019-02-15T00:55:24.086Z,7.17
2019-02-15T00:57:54.085Z,6.77
2019-02-15T01:00:27.046Z,7.60
2019-02-15T01:03:06.183Z,6.90
2019-02-15T01:05:41.862Z,7.13
2019-02-15T01:08:14.842Z,7.13
2019-02-15T01:10:44.885Z,7.53
2019-02-15T01:13:14.493Z,6.77
2019-02-15T01:15:42.885Z,7.00
2019-02-15T01:18:11.287Z,6.57
2019-02-15T01:20:39.625Z,6.93
2019-02-15T01:23:07.961Z,6.93
2019-02-15T01:25:37.933Z,7.00
2019-02-15T01:28:10.888Z,6.90
2019-02-15T01:30:43.568Z,7.17
2019-02-15T01:33:14.720Z,6.70
2019-02-15T01:35:44.699Z,6.90
2019-02-15T01:38:14.681Z,6.70
2019-02-15T01:40:53.656Z,6.77
2019-02-15T01:43:40.014Z,6.37
2019-02-15T01:46:07.543Z,5.77
2019-02-15T01:48:35.877Z,6.67
2019-02-15T01:51:04.211Z,6.80
2019-02-15T01:53:33.664Z,7.10
2019-02-15T01:56:01.999Z,7.50
2019-02-15T01:58:30.355Z,6.87
2019-02-15T02:00:58.708Z,6.40
2019-02-15T02:03:27.053Z,5.90
2019-02-15T02:05:55.389Z,6.53
2019-02-15T02:08:25.870Z,5.90
2019-02-15T02:10:54.270Z,6.47
2019-02-15T02:13:22.980Z,6.73
2019-02-15T02:15:51.310Z,6.57
2019-02-15T02:18:19.659Z,6.47
2019-02-15T02:20:48.008Z,6.13
2019-02-15T02:23:16.350Z,7.00
2019-02-15T02:25:44.695Z,6.43
2019-02-15T02:28:13.029Z,6.03
2019-02-15T02:30:41.361Z,5.80
2019-02-15T02:33:09.698Z,6.50
2019-02-15T02:35:38.355Z,6.57
2019-02-15T02:38:06.695Z,6.33
2019-02-15T02:40:35.033Z,6.37
2019-02-15T02:43:05.757Z,6.40
2019-02-15T02:45:34.159Z,5.93
2019-02-15T02:48:02.495Z,6.37
2019-02-15T02:50:30.831Z,5.87
2019-02-15T02:52:59.171Z,5.57
2019-02-15T02:55:27.520Z,6.03
2019-02-15T02:57:55.842Z,6.30
2019-02-15T03:00:33.212Z,5.90
2019-02-15T03:02:54.230Z,5.90
2019-02-15T03:05:22.597Z,5.80
2019-02-15T03:07:50.942Z,6.53
2019-02-15T03:10:19.646Z,6.33
2019-02-15T03:12:47.978Z,5.80
2019-02-15T03:15:16.315Z,5.60
2019-02-15T03:17:44.654Z,5.53
2019-02-15T03:20:12.978Z,5.03
2019-02-15T03:22:41.321Z,5.83
2019-02-15T03:25:09.646Z,4.90
2019-02-15T03:27:37.976Z,5.07
2019-02-15T03:30:07.986Z,5.77
2019-02-15T03:32:36.319Z,4.93
2019-02-15T03:35:06.231Z,5.90
2019-02-15T03:37:54.322Z,5.80
2019-02-15T03:40:27.251Z,5.27
2019-02-15T03:42:55.583Z,6.37
2019-02-15T03:45:23.920Z,5.30
2019-02-15T03:47:52.246Z,4.93
2019-02-15T03:50:20.589Z,5.17
2019-02-15T03:52:48.950Z,5.77
2019-02-15T03:55:17.256Z,5.03
2019-02-15T03:57:45.595Z,5.03
2019-02-15T04:00:13.919Z,4.97
2019-02-15T04:02:42.256Z,5.83
2019-02-15T04:05:10.587Z,5.70
2019-02-15T04:07:38.926Z,5.53
2019-02-15T04:10:08.131Z,5.40
2019-02-15T04:12:36.492Z,4.70
2019-02-15T04:15:05.915Z,5.40
2019-02-15T04:17:34.255Z,5.37
2019-02-15T04:20:02.585Z,5.47
2019-02-15T04:22:30.922Z,5.17
2019-02-15T04:24:59.261Z,5.27
2019-02-15T04:27:27.583Z,5.90
2019-02-15T04:29:55.921Z,5.67
2019-02-15T04:32:24.251Z,5.13
2019-02-15T04:34:52.589Z,5.47
2019-02-15T04:37:20.936Z,5.63
2019-02-15T04:39:49.341Z,4.80
2019-02-15T04:42:17.676Z,5.00
2019-02-15T04:44:46.020Z,5.53
2019-02-15T04:47:14.370Z,4.93
2019-02-15T04:49:42.701Z,5.50
2019-02-15T04:52:11.038Z,4.87
2019-02-15T04:54:39.382Z,5.27
2019-02-15T04:57:07.736Z,5.17
2019-02-15T04:59:36.070Z,5.20
2019-02-15T05:02:04.413Z,4.63
2019-02-15T05:04:32.758Z,4.77
2019-02-15T05:07:01.083Z,5.10
2019-02-15T05:09:29.422Z,5.10
2019-02-15T05:11:57.753Z,5.10
2019-02-15T05:14:26.109Z,4.90
2019-02-15T05:16:54.428Z,5.03
2019-02-15T05:19:22.761Z,4.70
2019-02-15T05:21:51.107Z,4.73
2019-02-15T05:24:19.434Z,5.23
2019-02-15T05:26:47.777Z,4.77
2019-02-15T05:29:16.124Z,4.73
2019-02-15T05:31:44.652Z,5.40
2019-02-15T05:34:12.977Z,4.90
2019-02-15T05:36:41.319Z,5.40
2019-02-15T05:39:11.262Z,4.77
2019-02-15T05:41:39.581Z,4.67
2019-02-15T05:44:07.922Z,4.63
2019-02-15T05:46:36.261Z,5.47
2019-02-15T05:49:04.619Z,4.67
2019-02-15T05:51:32.955Z,5.03
2019-02-15T05:54:02.362Z,4.67
2019-02-15T05:56:30.700Z,5.23
2019-02-15T05:58:59.110Z,5.30
2019-02-15T06:01:28.021Z,5.27
2019-02-15T06:03:56.359Z,4.40
2019-02-15T06:06:26.229Z,4.77
2019-02-15T06:08:54.586Z,5.57
2019-02-15T06:11:22.917Z,5.33
2019-02-15T06:13:51.327Z,4.90
2019-02-15T06:16:19.688Z,5.03
2019-02-15T06:18:48.013Z,4.93
2019-02-15T06:21:16.356Z,5.03
2019-02-15T06:23:44.690Z,5.47
2019-02-15T06:26:13.032Z,4.87
2019-02-15T06:28:41.371Z,4.67
2019-02-15T06:31:09.729Z,5.17
2019-02-15T06:33:38.071Z,5.37
2019-02-15T06:36:06.401Z,4.97
2019-02-15T06:38:36.382Z,5.57
2019-02-15T06:41:06.321Z,4.70
2019-02-15T06:43:34.656Z,5.23
2019-02-15T06:46:03.004Z,5.40
2019-02-15T06:48:32.376Z,5.77
2019-02-15T06:51:00.717Z,6.10
2019-02-15T06:53:29.054Z,5.50
2019-02-15T06:55:58.465Z,5.27
2019-02-15T06:58:26.801Z,6.07
2019-02-15T07:01:07.178Z,5.20
2019-02-15T07:03:40.291Z,5.00
2019-02-15T07:06:08.722Z,5.40
2019-02-15T07:08:37.062Z,4.90
2019-02-15T07:11:05.397Z,5.27
2019-02-15T07:13:33.742Z,5.60
2019-02-15T07:16:02.090Z,5.47
2019-02-15T07:18:30.421Z,5.27
2019-02-15T07:20:58.758Z,5.13
2019-02-15T07:23:27.108Z,5.77
2019-02-15T07:25:55.441Z,5.17
2019-02-15T07:28:24.442Z,5.13
2019-02-15T07:30:52.813Z,5.73
2019-02-15T07:33:21.222Z,5.33
2019-02-15T07:35:50.952Z,5.23
2019-02-15T07:38:19.310Z,6.33
2019-02-15T07:40:47.707Z,5.63
2019-02-15T07:43:16.041Z,5.30
2019-02-15T07:45:44.375Z,6.10
2019-02-15T07:48:12.701Z,5.50
2019-02-15T07:50:41.034Z,5.40
2019-02-15T07:53:09.379Z,5.37
2019-02-15T07:55:37.702Z,5.47
2019-02-15T07:58:06.037Z,5.73
2019-02-15T08:00:34.377Z,4.97
2019-02-15T08:03:02.719Z,5.47
2019-02-15T08:05:31.069Z,6.00
2019-02-15T08:07:59.408Z,5.37
2019-02-15T08:10:29.375Z,5.87
2019-02-15T08:12:57.729Z,4.97
2019-02-15T08:15:26.060Z,5.20
2019-02-15T08:17:54.399Z,6.00
2019-02-15T08:20:22.741Z,5.23
2019-02-15T08:22:51.087Z,5.27
2019-02-15T08:25:19.429Z,5.43
2019-02-15T08:27:47.764Z,6.37
2019-02-15T08:30:16.185Z,5.33
2019-02-15T08:32:44.594Z,5.70
2019-02-15T08:35:12.937Z,6.03
2019-02-15T08:37:41.279Z,6.23
2019-02-15T08:40:10.591Z,6.03
2019-02-15T08:42:39.065Z,5.97
2019-02-15T08:45:11.539Z,5.67
2019-02-15T08:47:40.163Z,6.50
2019-02-15T08:50:09.478Z,7.30
2019-02-15T08:52:37.822Z,6.33
2019-02-15T08:55:07.511Z,6.83
2019-02-15T08:57:35.910Z,6.67
2019-02-15T09:00:05.720Z,6.23
2019-02-15T09:02:34.053Z,7.03
2019-02-15T09:05:02.453Z,6.77
2019-02-15T09:07:33.949Z,6.03
2019-02-15T09:10:02.294Z,6.20
2019-02-15T09:12:30.706Z,6.70
2019-02-15T09:14:59.051Z,7.20
2019-02-15T09:17:27.451Z,6.53
2019-02-15T09:20:00.204Z,7.40
2019-02-15T09:22:35.424Z,8.43
2019-02-15T09:25:02.911Z,6.63
2019-02-15T09:27:36.531Z,7.10
2019-02-15T09:30:06.997Z,6.07
2019-02-15T09:32:36.985Z,6.17
2019-02-15T09:35:08.105Z,7.07
2019-02-15T09:37:38.738Z,6.30
2019-02-15T09:40:12.827Z,5.83
2019-02-15T09:43:02.314Z,7.10
2019-02-15T09:45:35.466Z,6.17
2019-02-15T09:48:07.342Z,7.17
2019-02-15T09:50:37.042Z,6.70
2019-02-15T09:53:11.379Z,6.87
2019-02-15T09:55:48.265Z,6.37
2019-02-15T09:58:23.174Z,7.17
2019-02-15T10:00:56.552Z,6.70
2019-02-15T10:03:39.816Z,6.60
2019-02-15T10:06:14.104Z,6.87
2019-02-15T10:08:49.465Z,6.27
2019-02-15T10:11:36.273Z,6.73
2019-02-15T10:14:03.042Z,6.27
2019-02-15T10:16:31.504Z,6.70
2019-02-15T10:19:00.150Z,6.77
2019-02-15T10:21:30.912Z,6.77
2019-02-15T10:24:04.591Z,6.50
2019-02-15T10:26:33.674Z,6.73
2019-02-15T10:29:02.273Z,5.80
2019-02-15T10:31:30.998Z,6.30
2019-02-15T10:34:04.386Z,6.57
2019-02-15T10:36:33.803Z,6.77
2019-02-15T10:39:05.203Z,5.73
2019-02-15T10:41:34.894Z,5.93
2019-02-15T10:44:05.322Z,6.37
2019-02-15T10:46:37.919Z,6.93
2019-02-15T10:49:05.841Z,6.10
2019-02-15T10:51:34.169Z,6.43
2019-02-15T10:54:02.500Z,6.63
2019-02-15T10:56:30.847Z,6.47
2019-02-15T10:58:59.167Z,6.40
2019-02-15T11:01:27.513Z,6.60
2019-02-15T11:03:55.946Z,6.07
2019-02-15T11:06:24.308Z,6.93
2019-02-15T11:08:52.633Z,6.53
2019-02-15T11:11:20.973Z,6.87
2019-02-15T11:13:49.311Z,6.53
2019-02-15T11:16:20.338Z,6.53
2019-02-15T11:18:52.474Z,6.97
2019-02-15T11:21:24.838Z,6.77
2019-02-15T11:23:54.837Z,5.90
2019-02-15T11:26:24.986Z,7.37
2019-02-15T11:28:53.477Z,6.63
2019-02-15T11:31:21.822Z,5.83
2019-02-15T11:33:50.167Z,6.07
2019-02-15T11:36:18.758Z,6.43
2019-02-15T11:38:47.090Z,6.40
2019-02-15T11:41:19.350Z,6.87
2019-02-15T11:43:52.830Z,6.63
2019-02-15T11:46:21.169Z,6.17
2019-02-15T11:48:49.510Z,6.27
2019-02-15T11:51:20.249Z,6.50
2019-02-15T11:53:49.850Z,6.50
2019-02-15T11:56:21.019Z,6.37
2019-02-15T11:58:49.334Z,6.43
2019-02-15T12:01:24.540Z,4.93
2019-02-15T12:03:55.744Z,5.53
2019-02-15T12:06:29.298Z,6.70
2019-02-15T12:08:59.266Z,5.63
2019-02-15T12:11:27.586Z,7.53
2019-02-15T12:13:55.926Z,6.83
2019-02-15T12:16:25.712Z,6.00
2019-02-15T12:19:16.448Z,6.40
2019-02-15T12:21:50.819Z,5.73
2019-02-15T12:24:21.371Z,5.77
2019-02-15T12:27:07.125Z,5.90
2019-02-15T12:29:36.819Z,5.60
2019-02-15T12:32:21.385Z,6.07
2019-02-15T12:35:50.634Z,6.00
2019-02-15T12:37:42.557Z,6.30
2019-02-15T12:40:13.265Z,5.63
2019-02-15T12:42:41.598Z,6.43
2019-02-15T12:45:16.671Z,6.93
2019-02-15T12:47:49.236Z,6.17
2019-02-15T12:50:25.871Z,5.83
2019-02-15T12:52:55.524Z,7.83
2019-02-15T12:55:29.912Z,5.67
2019-02-15T12:57:58.284Z,6.47
2019-02-15T13:00:34.714Z,5.90
2019-02-15T13:03:07.177Z,5.40
2019-02-15T13:05:41.379Z,6.30
2019-02-15T13:08:10.982Z,5.87
2019-02-15T13:10:43.325Z,6.30
2019-02-15T13:13:14.569Z,6.27
2019-02-15T13:15:46.433Z,5.73
2019-02-15T13:18:20.200Z,6.27
2019-02-15T13:20:58.327Z,6.07
2019-02-15T13:23:29.221Z,5.67
2019-02-15T13:26:07.970Z,5.20
2019-02-15T13:28:31.628Z,5.67
2019-02-15T13:31:04.929Z,6.00
2019-02-15T13:33:34.616Z,5.77
2019-02-15T13:36:06.811Z,6.23
2019-02-15T13:38:35.740Z,5.97
2019-02-15T13:41:05.303Z,5.67
2019-02-15T13:43:39.675Z,5.33
2019-02-15T13:46:11.072Z,6.03
2019-02-15T13:48:40.378Z,5.50
2019-02-15T13:51:14.518Z,5.43
2019-02-15T13:53:50.397Z,5.10
2019-02-15T13:56:34.141Z,5.70
2019-02-15T13:59:03.267Z,5.60
2019-02-15T14:01:31.606Z,5.60
2019-02-15T14:03:59.940Z,5.37
2019-02-15T14:06:28.283Z,5.20
2019-02-15T14:08:56.610Z,5.73
2019-02-15T14:11:26.025Z,5.30
2019-02-15T14:13:54.358Z,5.20
2019-02-15T14:16:22.704Z,5.47
2019-02-15T14:18:51.679Z,5.90
2019-02-15T14:21:20.042Z,5.50
2019-02-15T14:23:48.383Z,5.50
2019-02-15T14:26:16.719Z,5.53
2019-02-15T14:28:45.049Z,5.50
2019-02-15T14:31:13.386Z,6.07
2019-02-15T14:33:43.397Z,5.40
2019-02-15T14:36:11.738Z,5.90
2019-02-15T14:38:44.094Z,5.77
2019-02-15T14:41:12.462Z,6.10
2019-02-15T14:43:41.622Z,5.90
2019-02-15T14:49:03.236Z,5.50
2019-02-15T14:51:32.750Z,7.87
2019-02-15T14:54:01.102Z,6.70
2019-02-15T14:56:30.846Z,6.30
2019-02-15T14:59:01.311Z,5.87
2019-02-15T15:01:29.659Z,5.53
2019-02-15T15:03:58.001Z,5.60
2019-02-15T15:06:26.340Z,6.23
2019-02-15T15:08:56.764Z,5.27
2019-02-15T15:11:25.088Z,5.30
2019-02-15T15:13:53.426Z,5.63
2019-02-15T15:16:21.789Z,5.40
2019-02-15T15:18:50.125Z,5.77
2019-02-15T15:21:18.477Z,4.73
2019-02-15T15:23:48.464Z,5.67
2019-02-15T15:26:17.082Z,4.90
2019-02-15T15:28:47.754Z,5.17
2019-02-15T15:31:18.911Z,6.17
2019-02-15T15:33:48.220Z,4.60
2019-02-15T15:36:18.461Z,4.70
2019-02-15T15:38:48.676Z,5.00
2019-02-15T15:41:17.060Z,5.10
2019-02-15T15:43:45.396Z,4.53
2019-02-15T15:46:13.748Z,4.80
2019-02-15T15:48:42.073Z,5.20
2019-02-15T15:51:10.401Z,4.77
2019-02-15T15:53:38.812Z,5.07
2019-02-15T15:56:13.803Z,4.70
2019-02-15T15:58:43.099Z,5.03
2019-02-15T16:01:13.899Z,4.53
2019-02-15T16:03:45.536Z,5.47
2019-02-15T16:06:24.052Z,4.77
2019-02-15T16:08:48.771Z,4.70
2019-02-15T16:11:20.148Z,5.53
2019-02-15T16:13:53.361Z,4.90
2019-02-15T16:16:21.703Z,4.60
2019-02-15T16:18:50.032Z,5.00
2019-02-15T16:21:18.363Z,5.47
2019-02-15T16:23:46.701Z,5.77
2019-02-15T16:26:15.068Z,6.10
2019-02-15T16:28:43.460Z,6.07
2019-02-15T16:31:11.793Z,5.80
2019-02-15T16:33:40.138Z,5.50
2019-02-15T16:36:08.460Z,4.80
2019-02-15T16:38:37.801Z,5.57
2019-02-15T16:41:06.126Z,5.27
2019-02-15T16:43:34.529Z,5.53
2019-02-15T16:46:02.885Z,5.07
2019-02-15T16:48:31.226Z,6.00
2019-02-15T16:50:59.556Z,5.13
2019-02-15T16:56:37.315Z,8.67
2019-02-15T16:59:13.047Z,9.07
2019-02-15T17:01:41.851Z,9.63
2019-02-15T17:04:10.202Z,10.30
2019-02-15T17:06:43.290Z,9.30
2019-02-15T17:09:19.783Z,9.00
2019-02-15T17:11:58.051Z,7.70
2019-02-15T17:14:29.118Z,7.40
2019-02-15T17:16:58.276Z,7.03
2019-02-15T17:19:26.613Z,18.70
2019-02-15T17:21:54.966Z,28.27
2019-02-15T17:24:23.334Z,14.73
2019-02-15T17:26:51.692Z,18.50
2019-02-15T17:29:20.032Z,13.07
2019-02-15T17:31:48.393Z,11.53
2019-02-15T17:34:16.802Z,8.83
2019-02-15T17:36:45.137Z,8.27
2019-02-15T17:39:13.485Z,7.83
2019-02-15T17:41:41.818Z,7.70
2019-02-15T17:44:10.626Z,7.30
2019-02-15T17:46:38.962Z,6.60
2019-02-15T17:49:07.362Z,7.30
2019-02-15T17:51:36.934Z,7.67
2019-02-15T17:54:06.901Z,6.90
2019-02-15T17:56:36.539Z,7.07
2019-02-15T17:59:04.941Z,7.57
2019-02-15T18:01:34.529Z,7.63
2019-02-15T18:04:03.770Z,8.43
2019-02-15T18:06:32.165Z,8.27
2019-02-15T18:09:02.355Z,8.77
2019-02-15T18:11:32.402Z,16.37
2019-02-15T18:14:00.965Z,11.10
2019-02-15T18:16:29.388Z,12.00
2019-02-15T18:18:57.721Z,9.60
2019-02-15T18:21:26.071Z,9.07
2019-02-15T18:23:54.519Z,9.33
2019-02-15T18:26:22.898Z,9.23
2019-02-15T18:28:51.537Z,9.23
2019-02-15T18:31:19.884Z,8.40
2019-02-15T18:33:48.221Z,8.33
2019-02-15T18:36:16.589Z,7.60
2019-02-15T18:38:44.962Z,9.23
2019-02-15T18:41:13.922Z,9.13
2019-02-15T18:43:42.471Z,9.77
2019-02-15T18:46:10.829Z,8.40
2019-02-15T18:48:39.188Z,8.93
2019-02-15T18:51:07.865Z,9.00
2019-02-15T18:53:36.208Z,9.50
2019-02-15T18:56:04.567Z,9.17
2019-02-15T18:58:32.901Z,9.73
2019-02-15T19:01:01.254Z,9.57
2019-02-15T19:03:30.861Z,8.40
2019-02-15T19:05:59.304Z,10.47
2019-02-15T19:08:27.663Z,11.53
2019-02-15T19:10:56.016Z,10.23
2019-02-15T19:13:24.367Z,10.60
2019-02-15T19:15:52.721Z,9.80
2019-02-15T19:18:21.066Z,10.20
2019-02-15T19:20:49.416Z,9.80
2019-02-15T19:23:17.756Z,9.67
2019-02-15T19:25:46.093Z,10.60
2019-02-15T19:28:14.451Z,12.53
2019-02-15T19:30:42.802Z,12.73
2019-02-15T19:33:11.477Z,11.50
2019-02-15T19:35:39.830Z,10.40
2019-02-15T19:38:08.946Z,10.03
2019-02-15T19:40:38.140Z,10.57
2019-02-15T19:43:09.228Z,10.10
2019-02-15T19:45:37.567Z,9.63
2019-02-15T19:48:05.916Z,10.23
2019-02-15T19:50:34.261Z,10.30
2019-02-15T19:53:03.569Z,10.23
2019-02-15T19:55:31.995Z,10.73
2019-02-15T19:58:00.336Z,11.00
2019-02-15T20:00:28.694Z,10.50
2019-02-15T20:02:57.295Z,10.57
2019-02-15T20:05:26.885Z,11.10
2019-02-15T20:07:55.566Z,25.40
2019-02-15T20:10:24.298Z,19.57
2019-02-15T20:12:52.866Z,17.00
2019-02-15T20:15:21.796Z,12.63
2019-02-15T20:17:50.161Z,10.93
2019-02-15T20:20:18.568Z,10.33
2019-02-15T20:22:46.925Z,10.53
2019-02-15T20:25:16.062Z,11.40
2019-02-15T20:27:45.177Z,10.60
2019-02-15T20:30:20.622Z,9.40
2019-02-15T20:32:48.953Z,10.47
2019-02-15T20:35:17.377Z,10.00
2019-02-15T20:37:45.725Z,10.10
2019-02-15T20:40:14.064Z,10.40
2019-02-15T20:42:42.418Z,10.10
2019-02-15T20:45:12.138Z,10.03
2019-02-15T20:47:41.560Z,10.33
2019-02-15T20:50:10.898Z,11.00
2019-02-15T20:52:39.244Z,12.63
2019-02-15T20:55:08.961Z,12.80
2019-02-15T20:57:37.322Z,13.63
2019-02-15T21:00:10.023Z,13.33
2019-02-15T21:02:38.621Z,11.33
2019-02-15T21:05:08.037Z,13.17
2019-02-15T21:07:36.399Z,11.53
2019-02-15T21:10:09.143Z,12.07
2019-02-15T21:12:39.526Z,12.27
2019-02-15T21:15:09.171Z,12.93
2019-02-15T21:17:37.508Z,12.70
2019-02-15T21:20:08.286Z,11.90
2019-02-15T21:22:37.021Z,12.67
2019-02-15T21:25:06.738Z,12.27
2019-02-15T21:27:35.095Z,11.20
2019-02-15T21:30:04.845Z,10.97
2019-02-15T21:32:34.780Z,11.83
2019-02-15T21:35:03.624Z,11.53
2019-02-15T21:37:31.960Z,11.00
2019-02-15T21:40:00.321Z,9.60
2019-02-15T21:42:28.725Z,10.53
2019-02-15T21:44:57.074Z,10.17
2019-02-15T21:47:25.417Z,10.90
2019-02-15T21:49:55.839Z,10.97
2019-02-15T21:52:24.198Z,10.77
2019-02-15T21:54:52.547Z,12.63
2019-02-15T21:57:21.062Z,10.27
2019-02-15T21:59:49.697Z,10.97
2019-02-15T22:02:18.311Z,10.60
2019-02-15T22:04:46.661Z,12.77
2019-02-15T22:07:15.033Z,17.63
2019-02-15T22:09:43.385Z,14.50
2019-02-15T22:12:11.850Z,10.57
2019-02-15T22:14:40.315Z,10.50
2019-02-15T22:17:08.711Z,9.77
2019-02-15T22:19:37.076Z,10.83
2019-02-15T22:22:05.453Z,9.70
2019-02-15T22:24:33.809Z,10.57
2019-02-15T22:27:02.301Z,9.93
2019-02-15T22:29:30.782Z,9.63
2019-02-15T22:31:59.436Z,9.97
2019-02-15T22:34:27.793Z,10.13
2019-02-15T22:36:56.137Z,9.73
2019-02-15T22:39:24.703Z,10.37
2019-02-15T22:41:53.054Z,9.97
2019-02-15T22:44:21.397Z,9.93
2019-02-15T22:46:49.746Z,10.33
2019-02-15T22:49:18.453Z,10.33
2019-02-15T22:51:46.824Z,11.67
2019-02-15T22:54:15.167Z,10.63
2019-02-15T22:56:43.691Z,11.57
2019-02-15T22:59:12.250Z,10.67
2019-02-15T23:01:40.606Z,10.60
2019-02-15T23:04:09.390Z,10.53
2019-02-15T23:06:39.864Z,10.87
2019-02-15T23:09:09.856Z,9.70
2019-02-15T23:11:40.057Z,10.20
2019-02-15T23:14:08.453Z,9.53
2019-02-15T23:16:36.810Z,10.83
2019-02-15T23:19:05.241Z,10.27
2019-02-15T23:21:33.646Z,9.37
2019-02-15T23:24:02.110Z,9.17
2019-02-15T23:26:30.628Z,9.83
2019-02-15T23:28:59.048Z,8.50
2019-02-15T23:31:27.389Z,9.37
2019-02-15T23:33:55.763Z,9.20
2019-02-15T23:36:24.120Z,8.70
2019-02-15T23:38:52.675Z,8.63
2019-02-15T23:41:22.125Z,8.17
2019-02-15T23:43:50.620Z,9.13
2019-02-15T23:46:19.185Z,9.10
2019-02-15T23:48:47.547Z,8.87
2019-02-15T23:51:15.944Z,8.20
2019-02-15T23:53:44.293Z,7.50
2019-02-15T23:56:12.634Z,7.60
2019-02-15T23:58:41.070Z,7.87
